Time;durP1;ratioP1;P1;durP2;ratioP2;P2;SDS_P1;SDS_P2;PMS_P1;PMS_P2;Temp;Humidity;BMP_temperature;BMP_pressure;BME280_temperature;BME280_humidity;BME280_pressure;Samples;Min_cycle;Max_cycle;Signal;HPM_P1;HPM_P2
2022/12/24 00:02:06;;;;;;;;;;;10.60;1.00;;;;;;5086213;28;19909;-78
2022/12/24 00:04:36;;;;;;;;;;;10.50;1.00;;;;;;5075304;28;19999;-78
2022/12/24 00:07:06;;;;;;;;;;;10.50;1.00;;;;;;5071001;28;19994;-79
2022/12/24 00:09:36;;;;;;;;;;;10.50;1.00;;;;;;5075153;28;20401;-79
2022/12/24 00:12:12;;;;;;;;;;;10.50;1.00;;;;;;5074970;28;19908;-79
2022/12/24 00:14:42;;;;;;;;;;;10.50;1.00;;;;;;5074185;28;19957;-79
2022/12/24 00:17:18;;;;;;;;;;;10.50;1.00;;;;;;5088499;28;19958;-78
2022/12/24 00:20:00;;;;;;;;;;;10.50;1.00;;;;;;5086698;28;20378;-78
2022/12/24 00:22:30;;;;;;;;;;;10.50;1.00;;;;;;5083820;28;20391;-80
2022/12/24 00:24:56;;;;;;;;;;;10.60;1.00;;;;;;5089165;28;19923;-79
2022/12/24 00:27:30;;;;;;;;;;;10.60;1.00;;;;;;5092382;28;19904;-79
2022/12/24 00:29:56;;;;;;;;;;;10.60;1.00;;;;;;5075292;28;19917;-79
2022/12/24 00:32:21;;;;;;;;;;;10.70;1.00;;;;;;5073924;28;19920;-80
2022/12/24 00:34:48;;;;;;;;;;;10.70;1.00;;;;;;5074655;28;19935;-80
2022/12/24 00:37:18;;;;;;;;;;;10.70;1.00;;;;;;5075074;28;19955;-79
2022/12/24 00:39:54;;;;;;;;;;;10.60;1.00;;;;;;5067741;28;19905;-79
2022/12/24 00:42:24;;;;;;;;;;;10.60;1.00;;;;;;5074248;28;19909;-79
2022/12/24 00:45:00;;;;;;;;;;;10.60;1.00;;;;;;5073231;28;19954;-79
2022/12/24 00:47:36;;;;;;;;;;;10.60;1.00;;;;;;5065046;28;19908;-79
2022/12/24 00:50:07;;;;;;;;;;;10.60;1.00;;;;;;5074756;28;20014;-79
2022/12/24 00:52:32;;;;;;;;;;;10.50;1.00;;;;;;5074656;28;20042;-79
2022/12/24 00:54:58;;;;;;;;;;;10.50;1.00;;;;;;5059641;28;20409;-79
2022/12/24 00:57:24;;;;;;;;;;;10.40;1.00;;;;;;5075310;28;20010;-79
2022/12/24 01:00:00;;;;;;;;;;;10.40;1.00;;;;;;5072524;28;19908;-79
2022/12/24 01:02:26;;;;;;;;;;;10.40;1.00;;;;;;5072816;28;19915;-79
2022/12/24 01:05:09;;;;;;;;;;;10.40;1.00;;;;;;5074193;28;19904;-80
2022/12/24 01:07:37;;;;;;;;;;;10.50;1.00;;;;;;5087156;28;19943;-78
2022/12/24 01:10:03;;;;;;;;;;;10.40;1.00;;;;;;5087805;28;19916;-78
2022/12/24 01:12:54;;;;;;;;;;;10.40;1.00;;;;;;5073909;28;19915;-78
2022/12/24 01:15:36;;;;;;;;;;;10.40;1.00;;;;;;5065660;28;19910;-78
2022/12/24 01:18:18;;;;;;;;;;;10.50;1.00;;;;;;5079273;28;19911;-78
2022/12/24 01:21:01;;;;;;;;;;;10.50;1.00;;;;;;5090917;28;19908;-78
2022/12/24 01:24:00;;;;;;;;;;;10.50;1.00;;;;;;5074246;28;19909;-78
2022/12/24 01:26:26;;;;;;;;;;;10.60;1.00;;;;;;5072444;28;19913;-78
2022/12/24 01:29:00;;;;;;;;;;;10.60;1.00;;;;;;5074932;28;19911;-78
2022/12/24 01:31:30;;;;;;;;;;;10.50;1.00;;;;;;5086075;28;19956;-78
2022/12/24 01:33:56;;;;;;;;;;;10.50;1.00;;;;;;5093980;28;19998;-78
2022/12/24 01:36:21;;;;;;;;;;;10.40;1.00;;;;;;5103705;28;19939;-78
2022/12/24 01:38:47;;;;;;;;;;;10.40;1.00;;;;;;5114842;28;19994;-79
2022/12/24 01:44:27;;;;;;;;;;;10.30;1.00;;;;;;5099829;28;20016;-79
2022/12/24 01:47:21;;;;;;;;;;;10.30;1.00;;;;;;5097253;28;19908;-80
2022/12/24 01:49:51;;;;;;;;;;;10.30;1.00;;;;;;5071817;28;19911;-79
2022/12/24 01:52:33;;;;;;;;;;;10.30;1.00;;;;;;5112135;28;19912;-80
2022/12/24 01:55:05;;;;;;;;;;;10.30;1.00;;;;;;5082435;28;19915;-79
2022/12/24 01:57:38;;;;;;;;;;;10.30;1.00;;;;;;5103263;28;19904;-80
2022/12/24 02:00:09;;;;;;;;;;;10.40;1.00;;;;;;5074816;28;19950;-79
2022/12/24 02:02:38;;;;;;;;;;;10.40;1.00;;;;;;5073872;28;19958;-80
2022/12/24 02:05:33;;;;;;;;;;;10.40;1.00;;;;;;5091650;28;19943;-80
2022/12/24 02:08:18;;;;;;;;;;;10.40;1.00;;;;;;5052628;28;19905;-79
2022/12/24 02:10:49;;;;;;;;;;;10.30;1.00;;;;;;5051192;28;19919;-78
2022/12/24 02:13:36;;;;;;;;;;;10.30;1.00;;;;;;5057288;28;20472;-78
2022/12/24 02:16:11;;;;;;;;;;;10.30;1.00;;;;;;5051575;28;20344;-78
2022/12/24 02:18:54;;;;;;;;;;;10.20;1.00;;;;;;5051467;28;19908;-78
2022/12/24 02:21:23;;;;;;;;;;;10.10;1.00;;;;;;5064807;28;19904;-78
2022/12/24 02:24:12;;;;;;;;;;;10.00;1.00;;;;;;5034798;28;19976;-79
2022/12/24 02:29:55;;;;;;;;;;;9.90;1.00;;;;;;5063998;28;19923;-78
2022/12/24 02:32:45;;;;;;;;;;;9.90;1.00;;;;;;5050717;28;19935;-78
2022/12/24 02:35:22;;;;;;;;;;;10.00;1.00;;;;;;5005453;28;19909;-78
2022/12/24 02:38:09;;;;;;;;;;;9.90;1.00;;;;;;5011717;28;19916;-78
2022/12/24 02:40:54;;;;;;;;;;;10.00;1.00;;;;;;5001795;28;19910;-80
2022/12/24 02:43:35;;;;;;;;;;;10.00;1.00;;;;;;4995094;28;19956;-80
2022/12/24 02:46:24;;;;;;;;;;;10.10;1.00;;;;;;5015174;28;19909;-79
2022/12/24 02:48:55;;;;;;;;;;;10.10;1.00;;;;;;5013880;28;19913;-80
2022/12/24 02:51:30;;;;;;;;;;;10.20;1.00;;;;;;5014625;28;19910;-80
2022/12/24 02:54:01;;;;;;;;;;;10.40;1.00;;;;;;5011095;28;19917;-80
2022/12/24 02:59:29;;;;;;;;;;;10.40;1.00;;;;;;5014247;28;19912;-79
2022/12/24 03:02:00;;;;;;;;;;;10.50;1.00;;;;;;5019041;28;19905;-80
2022/12/24 03:04:40;;;;;;;;;;;10.50;1.00;;;;;;5027835;28;19928;-80
2022/12/24 03:07:20;;;;;;;;;;;10.50;1.00;;;;;;5014726;28;19905;-80
2022/12/24 03:10:06;;;;;;;;;;;10.50;1.00;;;;;;5025443;28;20254;-79
2022/12/24 03:15:37;;;;;;;;;;;10.50;1.00;;;;;;5103523;28;19910;-79
2022/12/24 03:18:09;;;;;;;;;;;10.50;1.00;;;;;;5084576;28;19950;-80
2022/12/24 03:21:00;;;;;;;;;;;10.60;1.00;;;;;;5100746;28;19904;-80
2022/12/24 03:23:31;;;;;;;;;;;10.70;1.00;;;;;;5089878;28;19908;-79
2022/12/24 03:26:30;;;;;;;;;;;10.70;1.00;;;;;;5096624;28;19908;-80
2022/12/24 03:29:12;;;;;;;;;;;10.70;1.00;;;;;;5078904;28;19904;-81
2022/12/24 03:32:00;;;;;;;;;;;10.70;1.00;;;;;;5108450;28;20314;-80
2022/12/24 03:34:36;;;;;;;;;;;10.70;1.00;;;;;;5099616;28;19904;-80
2022/12/24 03:40:07;;;;;;;;;;;10.70;1.00;;;;;;5103482;28;19966;-78
2022/12/24 03:42:32;;;;;;;;;;;10.70;1.00;;;;;;5077358;28;19904;-78
2022/12/24 03:44:58;;;;;;;;;;;10.70;1.00;;;;;;5105415;28;19916;-78
2022/12/24 03:47:24;;;;;;;;;;;10.70;1.00;;;;;;5082350;28;19915;-79
2022/12/24 03:49:50;;;;;;;;;;;10.80;1.00;;;;;;5092859;28;19916;-78
2022/12/24 03:52:25;;;;;;;;;;;10.70;1.00;;;;;;5088835;28;20271;-78
2022/12/24 03:55:00;;;;;;;;;;;10.80;1.00;;;;;;5103602;28;19956;-80
2022/12/24 03:57:30;;;;;;;;;;;10.80;1.00;;;;;;5095940;28;19903;-80
2022/12/24 04:00:07;;;;;;;;;;;10.90;1.00;;;;;;5098223;28;19912;-80
2022/12/24 04:02:36;;;;;;;;;;;10.90;1.00;;;;;;5104295;28;19939;-80
2022/12/24 04:05:19;;;;;;;;;;;10.90;1.00;;;;;;5077219;28;19904;-81
2022/12/24 04:08:00;;;;;;;;;;;10.80;1.00;;;;;;5095484;28;19910;-80
2022/12/24 04:10:54;;;;;;;;;;;10.80;1.00;;;;;;5075519;28;19995;-79
2022/12/24 04:13:24;;;;;;;;;;;10.90;1.00;;;;;;5085134;28;19908;-78
2022/12/24 04:16:18;;;;;;;;;;;10.90;1.00;;;;;;5074960;28;19987;-78
2022/12/24 04:19:12;;;;;;;;;;;10.90;1.00;;;;;;5087809;28;19912;-78
2022/12/24 04:21:54;;;;;;;;;;;11.00;1.00;;;;;;5074944;28;19904;-78
2022/12/24 04:24:20;;;;;;;;;;;11.00;1.00;;;;;;5093231;28;20420;-79
2022/12/24 04:27:06;;;;;;;;;;;11.00;1.00;;;;;;5076971;28;19908;-78
2022/12/24 04:30:00;;;;;;;;;;;11.00;1.00;;;;;;5094996;28;19911;-78
2022/12/24 04:32:30;;;;;;;;;;;10.90;1.00;;;;;;5073209;28;19919;-78
2022/12/24 04:35:01;;;;;;;;;;;10.90;1.00;;;;;;5074694;28;19904;-78
2022/12/24 04:37:32;;;;;;;;;;;10.90;1.00;;;;;;5087386;28;19908;-78
2022/12/24 04:39:58;;;;;;;;;;;10.80;1.00;;;;;;5081749;28;19908;-79
2022/12/24 04:42:30;;;;;;;;;;;10.90;1.00;;;;;;5077820;28;19911;-78
2022/12/24 04:45:24;;;;;;;;;;;10.90;1.00;;;;;;5076704;28;19908;-78
2022/12/24 04:48:12;;;;;;;;;;;10.90;1.00;;;;;;5094673;28;19998;-78
2022/12/24 04:50:43;;;;;;;;;;;10.90;1.00;;;;;;5083572;28;19912;-78
2022/12/24 04:53:15;;;;;;;;;;;10.90;1.00;;;;;;5095055;28;19915;-78
2022/12/24 05:01:47;;;;;;;;;;;11.00;1.00;;;;;;5102795;28;19914;-80
2022/12/24 05:04:12;;;;;;;;;;;10.90;1.00;;;;;;5090400;28;19908;-80
2022/12/24 05:06:43;;;;;;;;;;;10.80;1.00;;;;;;5110080;28;19908;-80
2022/12/24 05:09:18;;;;;;;;;;;10.80;1.00;;;;;;5094269;28;19926;-80
2022/12/24 05:12:00;;;;;;;;;;;10.80;1.00;;;;;;5094585;28;19908;-80
2022/12/24 05:14:30;;;;;;;;;;;10.70;1.00;;;;;;5093256;28;19908;-79
2022/12/24 05:17:30;;;;;;;;;;;10.70;1.00;;;;;;5103261;28;19908;-80
2022/12/24 05:20:13;;;;;;;;;;;10.70;1.00;;;;;;5083683;28;19908;-80
2022/12/24 05:29:06;;;;;;;;;;;10.70;1.00;;;;;;5093691;28;19962;-80
2022/12/24 05:31:49;;;;;;;;;;;10.50;1.00;;;;;;5075612;28;19918;-80
2022/12/24 05:34:30;;;;;;;;;;;10.50;1.00;;;;;;5075894;28;19915;-81
2022/12/24 05:37:07;;;;;;;;;;;10.40;1.00;;;;;;5094207;28;19916;-80
2022/12/24 05:39:32;;;;;;;;;;;10.20;1.00;;;;;;5090154;28;19915;-80
2022/12/24 05:42:00;;;;;;;;;;;10.20;1.00;;;;;;5112325;28;19903;-80
2022/12/24 05:44:54;;;;;;;;;;;10.10;1.00;;;;;;5075150;28;19912;-80
2022/12/24 05:47:24;;;;;;;;;;;10.10;1.00;;;;;;5093931;28;19915;-80
2022/12/24 05:49:54;;;;;;;;;;;10.00;1.00;;;;;;5093758;28;19951;-80
2022/12/24 05:52:20;;;;;;;;;;;10.00;1.00;;;;;;5093363;28;19908;-80
2022/12/24 05:54:55;;;;;;;;;;;10.10;1.00;;;;;;5098791;28;20278;-80
2022/12/24 05:57:24;;;;;;;;;;;10.10;1.00;;;;;;5087287;28;19958;-81
2022/12/24 06:00:07;;;;;;;;;;;10.10;1.00;;;;;;5094143;28;19904;-79
2022/12/24 06:02:32;;;;;;;;;;;10.10;1.00;;;;;;5091948;28;19915;-80
2022/12/24 06:05:30;;;;;;;;;;;10.20;1.00;;;;;;5106630;28;20321;-80
2022/12/24 06:08:07;;;;;;;;;;;10.10;1.00;;;;;;5107381;28;19904;-80
2022/12/24 06:11:00;;;;;;;;;;;10.10;1.00;;;;;;5107350;28;19961;-85
2022/12/24 06:13:26;;;;;;;;;;;10.20;1.00;;;;;;5077538;28;19914;-73
2022/12/24 06:15:55;;;;;;;;;;;10.30;1.00;;;;;;5096994;28;19908;-74
2022/12/24 06:18:21;;;;;;;;;;;10.30;1.00;;;;;;5089451;28;19908;-74
2022/12/24 06:20:53;;;;;;;;;;;10.50;1.00;;;;;;5091745;28;19919;-74
2022/12/24 06:23:19;;;;;;;;;;;10.50;1.00;;;;;;5089393;28;19912;-73
2022/12/24 06:25:45;;;;;;;;;;;10.50;1.00;;;;;;5096101;28;19950;-73
2022/12/24 06:28:11;;;;;;;;;;;10.50;1.00;;;;;;5101813;28;20256;-73
2022/12/24 06:30:36;;;;;;;;;;;10.50;1.00;;;;;;5086582;28;19920;-73
2022/12/24 06:33:02;;;;;;;;;;;10.50;1.00;;;;;;5109257;28;20053;-74
2022/12/24 06:35:31;;;;;;;;;;;10.50;1.00;;;;;;5096996;28;19908;-73
2022/12/24 06:37:58;;;;;;;;;;;10.50;1.00;;;;;;5085610;28;19928;-74
2022/12/24 06:40:25;;;;;;;;;;;10.50;1.00;;;;;;5096495;28;19910;-74
2022/12/24 06:42:51;;;;;;;;;;;10.50;1.00;;;;;;5097264;28;19904;-77
2022/12/24 06:45:19;;;;;;;;;;;10.40;1.00;;;;;;5104186;28;19912;-77
2022/12/24 06:47:44;;;;;;;;;;;10.50;1.00;;;;;;5098149;28;19908;-77
2022/12/24 06:50:18;;;;;;;;;;;10.60;1.00;;;;;;5096939;28;19957;-77
2022/12/24 06:52:49;;;;;;;;;;;10.60;1.00;;;;;;5096516;28;19912;-77
2022/12/24 06:55:19;;;;;;;;;;;10.60;1.00;;;;;;5093188;28;19911;-77
2022/12/24 06:57:44;;;;;;;;;;;10.60;1.00;;;;;;5087912;28;19904;-74
2022/12/24 07:00:11;;;;;;;;;;;10.60;1.00;;;;;;5083711;28;19905;-73
2022/12/24 07:02:40;;;;;;;;;;;10.60;1.00;;;;;;5089467;28;19957;-73
2022/12/24 07:05:09;;;;;;;;;;;10.70;1.00;;;;;;5078036;28;19908;-73
2022/12/24 07:07:37;;;;;;;;;;;10.60;1.00;;;;;;5096654;28;20312;-73
2022/12/24 07:10:09;;;;;;;;;;;10.60;1.00;;;;;;5092087;28;19922;-74
2022/12/24 07:12:43;;;;;;;;;;;10.50;1.00;;;;;;5105217;28;19904;-77
2022/12/24 07:15:09;;;;;;;;;;;10.60;1.00;;;;;;5090370;28;19907;-77
2022/12/24 07:17:49;;;;;;;;;;;10.60;1.00;;;;;;5083123;28;20002;-77
2022/12/24 07:20:18;;;;;;;;;;;10.60;1.00;;;;;;5084983;28;19953;-77
2022/12/24 07:22:55;;;;;;;;;;;10.70;1.00;;;;;;5107182;28;19912;-77
2022/12/24 07:25:31;;;;;;;;;;;10.60;1.00;;;;;;5108011;28;19911;-77
2022/12/24 07:28:01;;;;;;;;;;;10.60;1.00;;;;;;5096965;28;19908;-77
2022/12/24 07:30:54;;;;;;;;;;;10.70;1.00;;;;;;5096264;28;19916;-77
2022/12/24 07:33:20;;;;;;;;;;;10.80;1.00;;;;;;5091172;28;19912;-77
2022/12/24 07:36:01;;;;;;;;;;;10.80;1.00;;;;;;5091924;28;19904;-78
2022/12/24 07:38:31;;;;;;;;;;;10.80;1.00;;;;;;5096095;28;19911;-77
2022/12/24 07:41:01;;;;;;;;;;;10.80;1.00;;;;;;5088277;28;19960;-76
2022/12/24 07:43:43;;;;;;;;;;;10.80;1.00;;;;;;5091432;28;19915;-77
2022/12/24 07:46:19;;;;;;;;;;;10.90;1.00;;;;;;5095806;28;19915;-77
2022/12/24 07:48:48;;;;;;;;;;;11.00;1.00;;;;;;5095377;28;19915;-76
2022/12/24 07:51:19;;;;;;;;;;;11.00;1.00;;;;;;5111099;28;19912;-76
2022/12/24 07:53:49;;;;;;;;;;;11.00;1.00;;;;;;5095496;28;20272;-77
2022/12/24 07:56:19;;;;;;;;;;;11.00;1.00;;;;;;5095390;28;20045;-77
2022/12/24 07:58:44;;;;;;;;;;;11.00;1.00;;;;;;5077772;28;19972;-73
2022/12/24 08:01:10;;;;;;;;;;;10.90;1.00;;;;;;5092968;28;19908;-74
2022/12/24 08:03:36;;;;;;;;;;;10.90;1.00;;;;;;5095655;28;19904;-73
2022/12/24 08:06:01;;;;;;;;;;;11.00;1.00;;;;;;5086217;28;20363;-73
2022/12/24 08:08:27;;;;;;;;;;;10.90;1.00;;;;;;5069294;28;19950;-70
2022/12/24 08:10:53;;;;;;;;;;;11.00;1.00;;;;;;5091840;28;19912;-69
2022/12/24 08:13:24;;;;;;;;;;;11.00;1.00;;;;;;5094664;28;19977;-79
2022/12/24 08:15:55;;;;;;;;;;;11.10;1.00;;;;;;5098772;28;19904;-78
2022/12/24 08:18:31;;;;;;;;;;;11.00;1.00;;;;;;5115692;28;20282;-83
2022/12/24 08:21:01;;;;;;;;;;;11.00;1.00;;;;;;5089812;28;19926;-78
2022/12/24 08:23:31;;;;;;;;;;;11.00;1.00;;;;;;5105510;28;19986;-78
2022/12/24 08:26:13;;;;;;;;;;;11.00;1.00;;;;;;5090889;28;20006;-78
2022/12/24 08:28:43;;;;;;;;;;;10.90;1.00;;;;;;5104497;28;19908;-79
2022/12/24 08:31:08;;;;;;;;;;;10.90;1.00;;;;;;5107904;28;20370;-79
2022/12/24 08:33:34;;;;;;;;;;;11.00;1.00;;;;;;5087425;28;19909;-79
2022/12/24 08:36:01;;;;;;;;;;;11.00;1.00;;;;;;5074592;28;19911;-79
2022/12/24 08:38:43;;;;;;;;;;;11.00;1.00;;;;;;5073155;28;19943;-79
2022/12/24 08:41:13;;;;;;;;;;;11.00;1.00;;;;;;5094223;28;19908;-84
2022/12/24 08:43:49;;;;;;;;;;;11.10;1.00;;;;;;5102283;28;19947;-78
2022/12/24 08:46:31;;;;;;;;;;;11.10;1.00;;;;;;5095408;28;19904;-79
2022/12/24 08:52:01;;;;;;;;;;;11.10;1.00;;;;;;5104987;28;20275;-79
2022/12/24 08:54:31;;;;;;;;;;;11.00;1.00;;;;;;5108099;28;19907;-79
2022/12/24 08:57:30;;;;;;;;;;;10.80;1.00;;;;;;5101379;28;19904;-79
2022/12/24 09:00:01;;;;;;;;;;;10.70;5.30;;;;;;5103472;28;19957;-78
2022/12/24 09:02:31;;;;;;;;;;;10.70;13.60;;;;;;5097710;28;19908;-78
2022/12/24 09:05:01;;;;;;;;;;;10.70;18.00;;;;;;5104173;28;19914;-78
2022/12/24 09:07:31;;;;;;;;;;;10.80;17.10;;;;;;5094499;28;19911;-78
2022/12/24 09:10:01;;;;;;;;;;;10.80;15.30;;;;;;5096966;28;19908;-78
2022/12/24 09:12:31;;;;;;;;;;;10.90;16.30;;;;;;5105749;28;19945;-78
2022/12/24 09:15:01;;;;;;;;;;;11.00;15.40;;;;;;5077298;28;20109;-78
2022/12/24 09:18:00;;;;;;;;;;;11.10;13.50;;;;;;5096324;28;19915;-78
2022/12/24 09:20:31;;;;;;;;;;;11.10;11.90;;;;;;5097449;28;19911;-79
2022/12/24 09:23:01;;;;;;;;;;;11.10;8.10;;;;;;5096942;28;20004;-78
2022/12/24 09:25:43;;;;;;;;;;;11.10;10.50;;;;;;5080902;28;19983;-78
2022/12/24 09:28:19;;;;;;;;;;;11.20;10.00;;;;;;5088192;28;19947;-78
2022/12/24 09:31:02;;;;;;;;;;;11.10;9.40;;;;;;5094013;28;19931;-78
2022/12/24 09:33:32;;;;;;;;;;;11.00;13.20;;;;;;5093976;28;19923;-78
2022/12/24 09:35:58;;;;;;;;;;;11.00;16.00;;;;;;5099482;28;20274;-79
2022/12/24 09:38:31;;;;;;;;;;;10.90;21.20;;;;;;5101606;28;19908;-78
2022/12/24 09:40:57;;;;;;;;;;;10.90;30.50;;;;;;5085206;28;19904;-79
2022/12/24 09:43:32;;;;;;;;;;;11.20;28.70;;;;;;5093734;28;20283;-81
2022/12/24 09:46:12;;;;;;;;;;;11.30;22.80;;;;;;5088275;28;19912;-82
2022/12/24 09:48:46;;;;;;;;;;;11.30;17.30;;;;;;5091515;28;19911;-81
2022/12/24 09:51:31;;;;;;;;;;;11.30;16.20;;;;;;5097607;28;19965;-80
2022/12/24 09:54:04;;;;;;;;;;;11.30;16.40;;;;;;5066709;28;19919;-81
2022/12/24 09:56:37;;;;;;;;;;;11.20;16.70;;;;;;5080816;28;19969;-80
2022/12/24 09:59:12;;;;;;;;;;;11.10;18.70;;;;;;5078096;28;19908;-81
2022/12/24 10:04:49;;;;;;;;;;;11.30;22.00;;;;;;5077318;28;19978;-81
2022/12/24 10:10:51;;;;;;;;;;;11.50;14.90;;;;;;5093997;28;19963;-83
2022/12/24 10:13:25;;;;;;;;;;;11.30;9.10;;;;;;5012860;28;20304;-81
2022/12/24 10:15:57;;;;;;;;;;;11.20;12.70;;;;;;5035677;28;19905;-82
2022/12/24 10:18:25;;;;;;;;;;;11.30;15.10;;;;;;5013353;28;20558;-82
2022/12/24 10:21:01;;;;;;;;;;;11.40;13.40;;;;;;5035334;28;19909;-83
2022/12/24 10:26:36;;;;;;;;;;;11.40;14.10;;;;;;5034857;28;20295;-82
2022/12/24 10:29:11;;;;;;;;;;;11.60;11.90;;;;;;5035351;28;19909;-78
2022/12/24 10:31:44;;;;;;;;;;;11.60;8.90;;;;;;5031629;28;19928;-78
2022/12/24 10:34:21;;;;;;;;;;;11.70;7.60;;;;;;5026632;28;20001;-77
2022/12/24 10:36:46;;;;;;;;;;;11.70;7.00;;;;;;5018107;28;20323;-77
2022/12/24 10:39:16;;;;;;;;;;;11.90;1.00;;;;;;5024771;28;19905;-77
2022/12/24 10:41:43;;;;;;;;;;;11.90;1.00;;;;;;5029360;28;19904;-77
2022/12/24 10:44:31;;;;;;;;;;;12.10;1.00;;;;;;5026234;28;19943;-80
2022/12/24 10:47:01;;;;;;;;;;;12.20;1.00;;;;;;5030788;28;19905;-77
2022/12/24 10:50:01;;;;;;;;;;;12.10;1.00;;;;;;5081720;28;19908;-77
2022/12/24 10:53:01;;;;;;;;;;;12.10;1.00;;;;;;5103102;28;19922;-77
2022/12/24 10:55:31;;;;;;;;;;;12.10;1.00;;;;;;5096416;28;19911;-77
2022/12/24 10:58:02;;;;;;;;;;;12.10;1.00;;;;;;5079116;28;19911;-78
2022/12/24 11:00:31;;;;;;;;;;;12.10;1.00;;;;;;5085699;28;19931;-77
2022/12/24 11:03:07;;;;;;;;;;;12.20;1.00;;;;;;5095819;28;19931;-78
2022/12/24 11:05:34;;;;;;;;;;;12.40;1.00;;;;;;5078488;28;20374;-77
2022/12/24 11:08:00;;;;;;;;;;;12.40;1.00;;;;;;5113074;28;19904;-78
2022/12/24 11:10:55;;;;;;;;;;;12.50;1.00;;;;;;5107398;28;20279;-78
2022/12/24 11:13:30;;;;;;;;;;;12.70;1.00;;;;;;5078350;28;19908;-77
2022/12/24 11:16:19;;;;;;;;;;;12.60;1.00;;;;;;5078384;28;20360;-81
2022/12/24 11:18:52;;;;;;;;;;;12.50;1.00;;;;;;5096567;28;19966;-82
2022/12/24 11:21:31;;;;;;;;;;;12.50;1.00;;;;;;5096535;28;19915;-81
2022/12/24 11:24:21;;;;;;;;;;;12.40;1.00;;;;;;5078411;28;19943;-81
2022/12/24 11:27:21;;;;;;;;;;;12.50;1.00;;;;;;5077776;28;19904;-82
2022/12/24 11:29:46;;;;;;;;;;;12.50;1.00;;;;;;5033476;28;20282;-81
2022/12/24 11:32:17;;;;;;;;;;;12.70;1.00;;;;;;5096109;28;19996;-81
2022/12/24 11:34:49;;;;;;;;;;;12.80;1.00;;;;;;5096373;28;19911;-82
2022/12/24 11:37:31;;;;;;;;;;;12.90;1.00;;;;;;5096099;28;19908;-81
2022/12/24 11:40:01;;;;;;;;;;;12.90;1.00;;;;;;5078182;28;19912;-81
2022/12/24 11:42:32;;;;;;;;;;;13.10;1.00;;;;;;5096154;28;19908;-81
2022/12/24 11:45:16;;;;;;;;;;;13.30;1.00;;;;;;5078289;28;20363;-81
2022/12/24 11:47:49;;;;;;;;;;;13.40;1.00;;;;;;5095623;28;19908;-82
2022/12/24 11:50:27;;;;;;;;;;;13.40;1.00;;;;;;5094846;28;20270;-81
2022/12/24 11:53:25;;;;;;;;;;;13.40;1.00;;;;;;5077889;28;19904;-81
2022/12/24 11:56:05;;;;;;;;;;;13.40;1.00;;;;;;5095793;28;19904;-82
2022/12/24 11:58:37;;;;;;;;;;;13.50;1.00;;;;;;5095694;28;19954;-82
2022/12/24 12:01:25;;;;;;;;;;;13.20;1.00;;;;;;5095647;28;19908;-77
2022/12/24 12:04:03;;;;;;;;;;;13.20;1.00;;;;;;5096462;28;19958;-77
2022/12/24 12:06:39;;;;;;;;;;;13.20;1.00;;;;;;5099278;28;19908;-77
2022/12/24 12:09:11;;;;;;;;;;;13.10;1.00;;;;;;5085606;28;19908;-77
2022/12/24 12:11:45;;;;;;;;;;;12.90;1.00;;;;;;5100270;28;20370;-77
2022/12/24 12:14:31;;;;;;;;;;;13.00;1.00;;;;;;5097187;28;19904;-76
2022/12/24 12:17:08;;;;;;;;;;;13.00;1.00;;;;;;5082353;28;20004;-74
2022/12/24 12:20:01;;;;;;;;;;;13.10;1.00;;;;;;5084037;28;19903;-78
2022/12/24 12:22:33;;;;;;;;;;;13.10;1.00;;;;;;5093364;28;19904;-76
2022/12/24 12:25:00;;;;;;;;;;;13.00;1.00;;;;;;5114640;28;19904;-78
2022/12/24 12:27:43;;;;;;;;;;;12.90;1.00;;;;;;5084772;28;20381;-81
2022/12/24 12:30:19;;;;;;;;;;;12.80;1.00;;;;;;5086283;28;19916;-80
2022/12/24 12:33:13;;;;;;;;;;;12.60;1.00;;;;;;5100871;28;19950;-80
2022/12/24 12:35:43;;;;;;;;;;;12.60;1.00;;;;;;5101728;28;19960;-79
2022/12/24 12:38:13;;;;;;;;;;;12.60;1.00;;;;;;5094990;28;19908;-78
2022/12/24 12:44:06;;;;;;;;;;;12.50;1.00;;;;;;5093832;28;19961;-80
2022/12/24 12:47:07;;;;;;;;;;;12.50;1.00;;;;;;5074848;28;19904;-78
2022/12/24 12:49:55;;;;;;;;;;;12.50;1.00;;;;;;5074696;28;19912;-80
2022/12/24 12:52:43;;;;;;;;;;;12.50;1.00;;;;;;5087988;28;19965;-81
2022/12/24 12:55:17;;;;;;;;;;;12.60;1.00;;;;;;5104691;28;19904;-74
2022/12/24 12:57:44;;;;;;;;;;;12.60;1.00;;;;;;5097514;28;19904;-76
2022/12/24 13:00:15;;;;;;;;;;;12.60;1.00;;;;;;5098878;28;19938;-76
2022/12/24 13:05:43;;;;;;;;;;;12.40;1.00;;;;;;5097512;28;19914;-78
2022/12/24 13:08:27;;;;;;;;;;;12.30;1.00;;;;;;5115065;28;19903;-78
2022/12/24 13:11:07;;;;;;;;;;;12.10;1.00;;;;;;5099084;28;19919;-80
2022/12/24 13:13:51;;;;;;;;;;;12.00;1.00;;;;;;5107888;28;19904;-79
2022/12/24 13:16:35;;;;;;;;;;;11.90;1.00;;;;;;5104657;28;19903;-79
2022/12/24 13:25:19;;;;;;;;;;;11.80;1.00;;;;;;5108863;28;19952;-79
2022/12/24 13:27:55;;;;;;;;;;;11.90;1.00;;;;;;5104691;28;19904;-78
2022/12/24 13:30:33;;;;;;;;;;;12.00;1.00;;;;;;5077718;28;19924;-83
2022/12/24 13:33:02;;;;;;;;;;;12.00;1.00;;;;;;5102167;28;20197;-83
2022/12/24 13:36:01;;;;;;;;;;;12.10;1.00;;;;;;5101721;28;19911;-84
2022/12/24 13:39:01;;;;;;;;;;;12.10;1.00;;;;;;5094539;28;19912;-83
2022/12/24 13:41:37;;;;;;;;;;;12.10;1.00;;;;;;5094478;28;19916;-82
2022/12/24 13:44:31;;;;;;;;;;;12.10;1.00;;;;;;5079245;28;19912;-82
2022/12/24 13:47:31;;;;;;;;;;;12.10;1.00;;;;;;5074201;28;20365;-82
2022/12/24 13:49:58;;;;;;;;;;;12.10;1.00;;;;;;5101484;28;19920;-79
2022/12/24 13:53:01;;;;;;;;;;;12.20;1.00;;;;;;5093633;28;19909;-83
2022/12/24 13:55:49;;;;;;;;;;;12.20;1.00;;;;;;5082286;28;19908;-82
2022/12/24 14:01:45;;;;;;;;;;;12.50;1.00;;;;;;5092177;28;19919;-84
2022/12/24 14:07:17;;;;;;;;;;;12.30;1.00;;;;;;5096743;28;20417;-84
2022/12/24 14:09:47;;;;;;;;;;;12.20;1.00;;;;;;5077949;28;19908;-72
2022/12/24 14:12:14;;;;;;;;;;;12.20;1.00;;;;;;5093550;28;19961;-72
2022/12/24 14:14:40;;;;;;;;;;;12.00;1.00;;;;;;5095367;28;20000;-71
2022/12/24 14:17:08;;;;;;;;;;;11.90;1.00;;;;;;5093713;28;20025;-69
2022/12/24 14:19:42;;;;;;;;;;;11.90;1.00;;;;;;5085700;28;20325;-69
2022/12/24 14:22:10;;;;;;;;;;;11.80;1.00;;;;;;5100934;28;19923;-68
2022/12/24 14:24:41;;;;;;;;;;;11.80;1.00;;;;;;5096194;28;19912;-69
2022/12/24 14:27:45;;;;;;;;;;;11.90;1.00;;;;;;5076530;28;19943;-80
2022/12/24 14:30:25;;;;;;;;;;;11.80;1.00;;;;;;5083715;28;19916;-78
2022/12/24 14:32:51;;;;;;;;;;;11.70;1.00;;;;;;5075634;28;20283;-80
2022/12/24 14:35:37;;;;;;;;;;;11.60;1.00;;;;;;5075050;28;19912;-80
2022/12/24 14:38:04;;;;;;;;;;;11.60;1.00;;;;;;5089149;28;19965;-80
2022/12/24 14:41:04;;;;;;;;;;;11.60;1.00;;;;;;5088118;28;19912;-80
2022/12/24 14:43:43;;;;;;;;;;;11.60;1.00;;;;;;4974791;28;19914;-80
2022/12/24 14:46:25;;;;;;;;;;;11.70;1.00;;;;;;4966658;28;19937;-79
2022/12/24 14:49:03;;;;;;;;;;;11.60;1.00;;;;;;4971706;28;19914;-78
2022/12/24 14:51:36;;;;;;;;;;;11.60;1.00;;;;;;4984461;28;19980;-78
2022/12/24 14:54:22;;;;;;;;;;;11.70;1.00;;;;;;4973962;28;19921;-80
2022/12/24 14:57:09;;;;;;;;;;;11.70;1.00;;;;;;4974302;28;19918;-81
2022/12/24 14:59:55;;;;;;;;;;;11.70;1.00;;;;;;4974650;28;20383;-81
2022/12/24 15:02:41;;;;;;;;;;;11.70;1.00;;;;;;4978294;28;20321;-86
2022/12/24 15:05:07;;;;;;;;;;;11.60;1.00;;;;;;4974891;28;19921;-79
2022/12/24 15:10:44;;;;;;;;;;;11.40;1.00;;;;;;4975865;28;19969;-86
2022/12/24 15:22:23;;;;;;;;;;;11.10;1.00;;;;;;5085648;28;19919;-81
2022/12/24 15:24:49;;;;;;;;;;;11.00;1.00;;;;;;5084836;28;19952;-76
2022/12/24 15:27:19;;;;;;;;;;;10.90;1.00;;;;;;5092260;28;19912;-77
2022/12/24 15:30:04;;;;;;;;;;;10.80;1.00;;;;;;5085167;28;20308;-78
2022/12/24 15:32:29;;;;;;;;;;;10.80;1.00;;;;;;5082794;28;19920;-78
2022/12/24 15:34:55;;;;;;;;;;;10.70;1.00;;;;;;5091295;28;19935;-78
2022/12/24 15:37:49;;;;;;;;;;;10.60;1.00;;;;;;5096464;28;19919;-78
2022/12/24 15:40:25;;;;;;;;;;;10.50;3.50;;;;;;5087511;28;19908;-78
2022/12/24 15:43:25;;;;;;;;;;;10.50;4.60;;;;;;5092374;28;19913;-78
2022/12/24 15:45:55;;;;;;;;;;;10.50;8.20;;;;;;5093377;28;20371;-78
2022/12/24 15:48:28;;;;;;;;;;;10.40;9.40;;;;;;5077473;28;19938;-75
2022/12/24 15:51:13;;;;;;;;;;;10.40;12.80;;;;;;5078877;28;19916;-75
2022/12/24 15:53:43;;;;;;;;;;;10.40;13.70;;;;;;5076250;28;19909;-75
2022/12/24 15:56:13;;;;;;;;;;;10.30;13.00;;;;;;5086822;28;19981;-75
2022/12/24 15:58:40;;;;;;;;;;;10.20;11.50;;;;;;5089043;28;19912;-75
2022/12/24 16:01:26;;;;;;;;;;;10.20;12.90;;;;;;5077189;28;19919;-77
2022/12/24 16:06:55;;;;;;;;;;;10.10;11.80;;;;;;5107684;28;19919;-76
2022/12/24 16:09:41;;;;;;;;;;;10.10;15.50;;;;;;5080030;28;19912;-74
2022/12/24 16:12:32;;;;;;;;;;;10.00;14.50;;;;;;5074320;28;19912;-75
2022/12/24 16:14:59;;;;;;;;;;;10.00;13.80;;;;;;5078963;28;20358;-75
2022/12/24 16:17:43;;;;;;;;;;;9.90;11.70;;;;;;5089999;28;19920;-75
2022/12/24 16:20:16;;;;;;;;;;;9.90;17.00;;;;;;5089586;28;19908;-75
2022/12/24 16:22:44;;;;;;;;;;;9.90;20.10;;;;;;5090511;28;19916;-75
2022/12/24 16:25:26;;;;;;;;;;;9.80;23.90;;;;;;5093926;28;19908;-74
2022/12/24 16:27:55;;;;;;;;;;;9.80;29.20;;;;;;5086842;28;19951;-75
2022/12/24 16:30:22;;;;;;;;;;;9.80;31.30;;;;;;5094027;28;20015;-75
2022/12/24 16:32:49;;;;;;;;;;;9.80;32.20;;;;;;5091686;28;19927;-75